• Join FlightAware (Why Join?)
  • Login
  • US Flag 
09:07AM EDT


 

Airport Tracker/Info


-or-


 

Live Flight TrackerFlight Track Log ✈ N6199B ✈ 14-Oct-2013 ✈ KTIX - KFXE

Flight Track Log - Related Links

Times and Time Zones

All times are in EDT time to prevent confusion due to time zone crossing. See the N6199B flight status page for this flight to view local times or setup timezone preferences in your user account.

Time Position Orientation Groundspeed Altitude Reporting Facility
EDT Latitude Longitude Course Direction KTS MPH feet Rate Location/Type
09:11PM 28.3333 -80.7333 166° South 102 117 4,500  Level Orlando TRACON
09:12PM 28.3000 -80.7167 156° South 106 122 4,500  Level Orlando TRACON
09:13PM 28.2833 -80.7167 180° South 105 121 4,500  Level Orlando TRACON
09:14PM 28.2500 -80.7000 156° South 101 116 4,500  Level Orlando TRACON
09:15PM 28.2167 -80.6833 156° South 101 116 4,500  Level Orlando TRACON
09:16PM 28.2000 -80.6667 139° Southeast 100 115 4,500  Level Orlando TRACON
09:17PM 28.3479 -80.7527 166° South  Level FlightAware Approximate
09:17PM 28.1667 -80.6500 156° South 100 115 4,600  Level Orlando TRACON
09:18PM 28.1500 -80.6333 139° Southeast 103 119 4,500  Descending Orlando TRACON
09:19PM 28.1167 -80.6333 180° South 100 115 4,600  Climbing Orlando TRACON
09:20PM 28.1000 -80.6167 139° Southeast 104 120 4,500 -60 Descending Orlando TRACON
09:22PM 28.0667 -80.6000 156° South 103 119 4,500  Level Orlando TRACON
09:22PM 28.0453 -80.5972 173° South 102 117 4,500  Level Miami Center
09:23PM 28.0186 -80.5869 161° South 108 124 4,500  Level Miami Center
09:24PM 27.9958 -80.5769 159° South 108 124 4,500  Level Miami Center
09:25PM 27.9689 -80.5714 170° South 102 117 4,500  Level Miami Center
09:26PM 27.9372 -80.5797 193° South 102 117 4,500  Level Miami Center
09:27PM 27.9083 -80.5717 166° South 102 117 4,500  Level Miami Center
09:28PM 27.8833 -80.5639 165° South 107 123 4,600  Climbing Miami Center
09:29PM 27.8567 -80.5536 161° South 107 123 4,500 -60 Descending Miami Center
09:30PM 27.8256 -80.5383 157° South 107 123 4,500  Level Miami Center
09:31PM 27.7967 -80.5328 170° South 107 123 4,500  Level Miami Center
09:32PM 27.7697 -80.5250 166° South 107 123 4,500  Level Miami Center
09:33PM 27.7469 -80.5125 154° Southeast 101 116 4,600  Climbing Miami Center
09:34PM 27.7203 -80.4997 157° South 106 122 4,600 -60 Level Miami Center
09:35PM 27.6914 -80.4872 159° South 106 122 4,500  Descending Miami Center
09:36PM 27.6622 -80.4817 170° South 106 122 4,600  Climbing Miami Center
09:37PM 27.6331 -80.4758 170° South 106 122 4,500 -60 Descending Miami Center
09:38PM 27.6081 -80.4706 169° South 106 122 4,500  Level Miami Center
09:39PM 27.5814 -80.4603 161° South 106 122 4,500  Level Miami Center
09:40PM 27.5525 -80.4431 152° Southeast 106 122 4,500  Level Miami Center
09:41PM 27.5278 -80.4306 156° South 106 122 4,500  Level Miami Center
09:42PM 27.5031 -80.4156 152° Southeast 106 122 4,500  Level Miami Center
09:43PM 27.4825 -80.4011 148° Southeast 106 122 4,500  Level Miami Center
09:44PM 27.4578 -80.3861 152° Southeast 106 122 4,500  Level Miami Center
09:45PM 27.4311 -80.3689 150° Southeast 106 122 4,500  Level Miami Center
09:46PM 27.4064 -80.3519 149° Southeast 100 115 4,600  Climbing Miami Center
09:47PM 27.3839 -80.3347 146° Southeast 100 115 4,500  Descending Miami Center
09:48PM 27.3614 -80.3225 154° Southeast 100 115 4,600  Climbing Miami Center
09:49PM 27.3325 -80.3075 155° Southeast 100 115 4,600 -60 Level Miami Center
09:50PM 27.3056 -80.2950 158° South 105 121 4,500 -60 Descending Miami Center
09:51PM 27.2808 -80.2828 156° South 105 121 4,500  Level Miami Center
09:52PM 27.2558 -80.2725 160° South 110 127 4,500  Level Miami Center
09:53PM 27.2289 -80.2647 166° South 105 121 4,500  Level Miami Center
09:55PM 27.1973 -80.2819 206° Southwest  Level FlightAware Approximate
10:02PM 26.9852 -80.2581 172° South  Level Estimated
10:03PM 26.9548 -80.2550 175° South  Level FlightAware Approximate
10:04PM 26.9245 -80.2519 175° South  Level FlightAware Approximate
10:05PM 26.8941 -80.2488 175° South  Level FlightAware Approximate
10:06PM 26.8638 -80.2457 175° South  Level FlightAware Approximate
10:07PM 26.8335 -80.2426 175° South  Level FlightAware Approximate
10:08PM 26.8031 -80.2395 175° South  Level FlightAware Approximate
10:09PM 26.7728 -80.2364 175° South  Level FlightAware Approximate
10:10PM 26.7424 -80.2332 175° South  Level FlightAware Approximate
10:11PM 26.7121 -80.2301 175° South  Level FlightAware Approximate
10:12PM 26.6818 -80.2270 175° South  Level FlightAware Approximate
10:13PM 26.6514 -80.2239 175° South  Level FlightAware Approximate
10:14PM 26.6211 -80.2208 175° South  Level FlightAware Approximate
10:15PM 26.5907 -80.2177 175° South  Level FlightAware Approximate
10:16PM 26.5604 -80.2146 175° South  Level FlightAware Approximate